Ikke nødvendig med spesiell oppmerksomhet.   -   Det er ingen advarsler.

Nearby METAR Reports

 

ENRY - Rygge (nor-Afb), Norway
Distance from station: SØ 12km
Oppdatert: 21/01/2021 18:20
Hovedsaklig skyet
Hovedsaklig skyet
 Vind fra S
Vind: S 43 km/h, Vindkast: 69 km/h
Temperatur: 5°C
Wind Chill: -1°C
Duggpunkt: 1°C
Fuktighet: 76%
Barometer: 974 hPa
Clouds: Hovedsaklig skyet
Visibility: 10 km
Cloud details: Hovedsaklig skyet 914 m
2021/01/22 02:20 ENRY 220220Z AUTO 17023G37KT 9999NDV BKN030/// 05/01 Q0974
ENTO - Torp (civ/Nor-Af, Norway
Distance from station: SV 34km
Oppdatert: 21/01/2021 18:20
Hovedsaklig skyet
Hovedsaklig skyet
 Vind fra S
Vind: S 41 km/h, Vindkast: 67 km/h
Temperatur: 4°C
Wind Chill: -2°C
Duggpunkt: 3°C
Fuktighet: 93%
Barometer: 973 hPa
Clouds: Hovedsaklig skyet
Visibility: 8 km
Cloud details: Few Clouds 335 m
Delvis skyet 457 m
Hovedsaklig skyet 610 m
2021/01/22 02:20 ENTO 220220Z AUTO 19022G36KT 8000 FEW011/// SCT015/// BKN020/// 04/03 Q0973 RERA
 
ENNO - Notodden, Norway
Distance from station: V 80km
Oppdatert: 21/01/2021 09:50
NOT Current
Noe regn, Overskyet
Noe regn, Overskyet
 Vind fra ØSØ
Vind: ØSØ 26 km/h
Temperatur: 3°C
Wind Chill: -2°C
Duggpunkt: 1°C
Fuktighet: 87%
Barometer: 972 hPa
Oversikt: Noe regn
Clouds: Overskyet
Visibility: 8 km
Cloud details: Few Clouds 122 m
Delvis skyet 457 m
Overskyet 671 m
2021/01/21 17:50 ENNO 211750Z 12014KT 8000 -RA FEW004 SCT015 OVC022 03/01 Q0972
ENGM - Oslo/Gardermoen, Norway
Distance from station: NNØ 88km
Oppdatert: 21/01/2021 18:20
Noe regn, Hovedsaklig skyet
Noe regn, Hovedsaklig skyet
 Vind fra S
Vind: S 43 km/h
Temperatur: 2°C
Wind Chill: -4°C
Duggpunkt: 1°C
Fuktighet: 93%
Barometer: 971 hPa
Oversikt: Noe regn
Clouds: Hovedsaklig skyet
Visibility: 10 km
Cloud details: Hovedsaklig skyet 274 m
2021/01/22 02:20 ENGM 220220Z 17023KT 9999 -RA BKN009 02/01 Q0971
 
ESOK - Karlstad North, Sweden
Distance from station: Ø 153km
Oppdatert: 21/01/2021 17:50
Hovedsaklig skyet
Hovedsaklig skyet
 Vind fra S
Vind: S 39 km/h
Temperatur: 4°C
Wind Chill: -2°C
Duggpunkt: 2°C
Fuktighet: 87%
Barometer: 979 hPa
Clouds: Hovedsaklig skyet
Visibility: 10 km
Cloud details: Few Clouds 518 m
Delvis skyet 579 m
Hovedsaklig skyet 671 m
2021/01/22 01:50 ESOK 220150Z AUTO 18021KT 9999 FEW017/// SCT019/// BKN022/// 04/02 Q0979
ESST - Torsby, Sweden
Distance from station: ØNØ 154km
Oppdatert: 21/01/2021 17:50
Noe regn, Overskyet
Noe regn, Overskyet
 Vind fra SSØ
Vind: SSØ 24 km/h
Temperatur: 3°C
Wind Chill: -2°C
Duggpunkt: 2°C
Fuktighet: 93%
Barometer: 977 hPa
Oversikt: Noe regn
Clouds: Overskyet
Visibility: 8 km
Cloud details: Few Clouds 274 m
Hovedsaklig skyet 396 m
Overskyet 914 m
2021/01/22 01:50 ESST 220150Z AUTO 15013KT 8000 -RA FEW009/// BKN013/// OVC030/// 03/02 Q0977
 
ESGT - Trollhattan (pvt, Sweden
Distance from station: SØ 159km
Oppdatert: 21/01/2021 17:50
Hovedsaklig skyet
Hovedsaklig skyet
 Vind fra SSV
Vind: SSV 31 km/h
Temperatur: 4°C
Wind Chill: -2°C
Duggpunkt: 2°C
Fuktighet: 87%
Barometer: 980 hPa
Clouds: Hovedsaklig skyet
Visibility: 10 km
Cloud details: Delvis skyet 122 m
Hovedsaklig skyet 457 m
Hovedsaklig skyet 762 m
2021/01/22 01:50 ESGT 220150Z AUTO 20017KT 9999 SCT004/// BKN015/// BKN025/// 04/02 Q0980 RERA
ESIB - Satenas (swe-Afb, Sweden
Distance from station: SØ 164km
Oppdatert: 21/01/2021 17:50
Overskyet
Overskyet
 Vind fra SSV
Vind: SSV 26 km/h
Temperatur: 4°C
Wind Chill: -1°C
Duggpunkt: 4°C
Fuktighet: 100%
Barometer: 980 hPa
Clouds: Overskyet
Visibility: 10 km
Cloud details: Overskyet 701 m
2021/01/22 01:50 ESIB 220150Z AUTO 20014KT 9999 OVC023/// 04/04 Q0980
 
ENCN - Kristiansand/Kje, Norway
Distance from station: SV 202km
Oppdatert: 21/01/2021 18:20
Overskyet
Overskyet
 Vind fra SSV
Vind: SSV 44 km/h
Temperatur: 5°C
Wind Chill: -1°C
Duggpunkt: 2°C
Fuktighet: 81%
Barometer: 970 hPa
Clouds: Overskyet
Visibility: 10 km
Cloud details: Few Clouds 488 m
Delvis skyet 1006 m
Overskyet 1433 m
2021/01/22 02:20 ENCN 220220Z AUTO 20024KT 9999 FEW016/// SCT033/// OVC047/// 05/02 Q0970
EKSN - Sindal Airport, Denmark
Distance from station: S 217km
Oppdatert: 21/01/2021 05:50
NOT Current
Hovedsaklig skyet
Hovedsaklig skyet
 Vind fra SV
Vind: SV 33 km/h
Temperatur: 5°C
Wind Chill: 0°C
Duggpunkt: 2°C
Fuktighet: 81%
Barometer: 979 hPa
Clouds: Hovedsaklig skyet
Visibility: 10 km
Cloud details: Delvis skyet 488 m
Hovedsaklig skyet 853 m
2021/01/21 13:50 EKSN 211350Z 22018KT 9999 SCT016 BKN028 05/02 Q0979
 
ESGG - Goteborg/Landvet, Sweden
Distance from station: SSØ 220km
Oppdatert: 21/01/2021 17:50
Hovedsaklig skyet
Hovedsaklig skyet
 Vind fra S
Vind: S 35 km/h
Temperatur: 4°C
Wind Chill: -2°C
Duggpunkt: 1°C
Fuktighet: 81%
Barometer: 981 hPa
Clouds: Hovedsaklig skyet
Visibility: 10 km
Cloud details: Delvis skyet 518 m
Hovedsaklig skyet 975 m
2021/01/22 01:50 ESGG 220150Z 19019KT 9999 SCT017 BKN032 04/01 Q0981 R21/29//95
ESGR - Skovde Airport, Sweden
Distance from station: ØSØ 221km
Oppdatert: 21/01/2021 17:50
Klart
Klart
 Vind fra S
Vind: S 26 km/h
Temperatur: 4°C
Wind Chill: -1°C
Duggpunkt: 1°C
Fuktighet: 81%
Barometer: 981 hPa
Clouds: Klart
Visibility: 10 km
2021/01/22 01:50 ESGR 220150Z AUTO 19014KT 9999 NCD 04/01 Q0981
 
ESOE - Orebro (private), Sweden
Distance from station: Ø 252km
Oppdatert: 21/01/2021 17:50
Few Clouds
Few Clouds
 Vind fra SSØ
Vind: SSØ 22 km/h
Temperatur: 3°C
Wind Chill: -2°C
Duggpunkt: 1°C
Fuktighet: 87%
Barometer: 982 hPa
Clouds: Few Clouds
Visibility: 10 km
Cloud details: Few Clouds 732 m
2021/01/22 01:50 ESOE 220150Z AUTO 15012KT 9999 FEW024/// 03/01 Q0982
EKYT - Alborg, Denmark
Distance from station: S 264km
Oppdatert: 21/01/2021 17:50
Yr, Hovedsaklig skyet
Yr, Hovedsaklig skyet
 Vind fra S
Vind: S 28 km/h
Temperatur: 5°C
Wind Chill: 1°C
Duggpunkt: 3°C
Fuktighet: 87%
Barometer: 978 hPa
Oversikt: Yr
Clouds: Hovedsaklig skyet
Visibility: 10 km
Cloud details: Few Clouds 640 m
Delvis skyet 1097 m
Hovedsaklig skyet 1311 m
Hovedsaklig skyet 1829 m
2021/01/22 01:50 EKYT 220150Z AUTO 19015KT 9999 -DZ FEW021/// SCT036/// BKN043/// BKN060/// 05/03 Q0978
 
ENSG - Sogndal/Haukasen, Norway
Distance from station: NV 269km
Oppdatert: 21/01/2021 12:20
NOT Current
Delvis skyet
Delvis skyet
 Vind fra varies
Vind: varies 9 km/h
Temperatur: 0°C
Wind Chill: -3°C
Duggpunkt: -5°C
Fuktighet: 69%
Barometer: 965 hPa
Clouds: Delvis skyet
Visibility: 10 km
Cloud details: Delvis skyet 1372 m
2021/01/21 20:20 ENSG 212020Z VRB05KT 9999 SCT045 00/M05 Q0965 RMK WIND 3806FT 10018KT
ESGJ - Jonkoping Airpor, Sweden
Distance from station: SØ 273km
Oppdatert: 21/01/2021 17:50
Klart
Klart
 Vind fra S
Vind: S 24 km/h
Temperatur: 2°C
Wind Chill: -3°C
Duggpunkt: 1°C
Fuktighet: 93%
Barometer: 982 hPa
Clouds: Klart
Visibility: 10 km
2021/01/22 01:50 ESGJ 220150Z AUTO 18013KT 9999 NCD 02/01 Q0982
 
ENZV - Stavanger/Sola(A, Norway
Distance from station: V 292km
Oppdatert: 21/01/2021 17:50
Hovedsaklig skyet
Hovedsaklig skyet
 Vind fra S
Vind: S 41 km/h
Temperatur: 6°C
Wind Chill: 1°C
Duggpunkt: 4°C
Fuktighet: 87%
Barometer: 959 hPa
Clouds: Hovedsaklig skyet
Visibility: 8 km
Cloud details: Few Clouds 274 m
Hovedsaklig skyet 457 m
Hovedsaklig skyet 671 m
2021/01/22 01:50 ENZV 220150Z 19022KT 8000 FEW009 BKN015 BKN022 06/04 Q0959
ESSD - Borlange (swe-Af, Sweden
Distance from station: ØNØ 292km
Oppdatert: 21/01/2021 17:50
Hovedsaklig skyet
Hovedsaklig skyet
 Vind fra S
Vind: S 19 km/h
Temperatur: 2°C
Wind Chill: -2°C
Duggpunkt: 1°C
Fuktighet: 93%
Barometer: 981 hPa
Clouds: Hovedsaklig skyet
Visibility: 10 km
Cloud details: Few Clouds 366 m
Hovedsaklig skyet 762 m
Hovedsaklig skyet 1006 m
2021/01/22 01:50 ESSD 220150Z AUTO 17010KT 140V200 9999 FEW012/// BKN025/// BKN033/// 02/01 Q0981
 
ENSO - Stord/Soerstokke, Norway
Distance from station: V 300km
Oppdatert: 21/01/2021 09:50
NOT Current
Hovedsaklig skyet
Hovedsaklig skyet
 Vind fra ØSØ
Vind: ØSØ 37 km/h, Vindkast: 56 km/h
Temperatur: 5°C
Wind Chill: -1°C
Duggpunkt: -1°C
Fuktighet: 66%
Barometer: 959 hPa
Clouds: Hovedsaklig skyet
Visibility: 10 km
Cloud details: Few Clouds 427 m
Delvis skyet 914 m
Hovedsaklig skyet 1829 m
2021/01/21 17:50 ENSO 211750Z 12020G30KT 9999 FEW014 SCT030 BKN060 05/M01 Q0959
ESCF - Linkoping/Malmen, Sweden
Distance from station: ØSØ 305km
Oppdatert: 21/01/2021 17:50
Klart
Klart
 Vind fra SSØ
Vind: SSØ 17 km/h
Temperatur: 2°C
Wind Chill: -2°C
Duggpunkt: 0°C
Fuktighet: 87%
Barometer: 985 hPa
Clouds: Klart
Visibility: 10 km
2021/01/22 01:50 ESCF 220150Z AUTO 16009KT 9999 NCD 02/M00 Q0985